sensor_id;sensor_type;location;lat;lon;timestamp;pressure;altitude;pressure_sealevel;temperature;humidity
6530;BME280;3298;42.688;23.366;2023-02-11T00:00:22;51778.50;;;-145.06;51.54
6530;BME280;3298;42.688;23.366;2023-02-11T00:02:49;51721.19;;;-145.06;51.50
6530;BME280;3298;42.688;23.366;2023-02-11T00:05:16;51708.91;;;-145.06;51.57
6530;BME280;3298;42.688;23.366;2023-02-11T00:07:42;51647.50;;;-145.06;51.46
6530;BME280;3298;42.688;23.366;2023-02-11T00:10:09;51717.09;;;-145.06;51.45
6530;BME280;3298;42.688;23.366;2023-02-11T00:12:36;51696.63;;;-145.06;51.60
6530;BME280;3298;42.688;23.366;2023-02-11T00:15:04;51715.03;;;-145.06;51.31
6530;BME280;3298;42.688;23.366;2023-02-11T00:17:32;51700.72;;;-145.06;51.27
6530;BME280;3298;42.688;23.366;2023-02-11T00:19:59;51713.00;;;-145.06;51.03
6530;BME280;3298;42.688;23.366;2023-02-11T00:22:26;51715.03;;;-145.06;51.49
6530;BME280;3298;42.688;23.366;2023-02-11T00:24:53;51717.09;;;-145.06;51.50
6530;BME280;3298;42.688;23.366;2023-02-11T00:27:21;51661.81;;;-145.06;51.38
6530;BME280;3298;42.688;23.366;2023-02-11T00:29:48;51704.81;;;-145.06;51.28
6530;BME280;3298;42.688;23.366;2023-02-11T00:32:15;51702.75;;;-145.06;51.02
6530;BME280;3298;42.688;23.366;2023-02-11T00:34:43;51708.91;;;-145.06;51.10
6530;BME280;3298;42.688;23.366;2023-02-11T00:37:10;51723.22;;;-145.06;50.99
6530;BME280;3298;42.688;23.366;2023-02-11T00:39:38;51706.84;;;-145.06;51.04
6530;BME280;3298;42.688;23.366;2023-02-11T00:42:04;51725.28;;;-145.06;51.06
6530;BME280;3298;42.688;23.366;2023-02-11T00:44:31;51700.72;;;-145.06;51.07
6530;BME280;3298;42.688;23.366;2023-02-11T00:46:58;51715.03;;;-145.06;51.10
6530;BME280;3298;42.688;23.366;2023-02-11T00:49:25;51700.72;;;-145.06;51.09
6530;BME280;3298;42.688;23.366;2023-02-11T00:51:53;51708.91;;;-145.06;51.11
6530;BME280;3298;42.688;23.366;2023-02-11T00:54:20;51733.47;;;-145.06;50.93
6530;BME280;3298;42.688;23.366;2023-02-11T00:56:46;51719.13;;;-145.06;50.88
6530;BME280;3298;42.688;23.366;2023-02-11T00:59:13;51680.25;;;-145.06;51.09
6530;BME280;3298;42.688;23.366;2023-02-11T01:01:40;51710.94;;;-145.06;50.80
6530;BME280;3298;42.688;23.366;2023-02-11T01:04:07;51692.53;;;-145.06;50.96
6530;BME280;3298;42.688;23.366;2023-02-11T01:06:33;51704.81;;;-145.06;50.81
6530;BME280;3298;42.688;23.366;2023-02-11T01:09:02;51696.63;;;-145.06;51.16
6530;BME280;3298;42.688;23.366;2023-02-11T01:11:29;51680.25;;;-145.06;51.08
6530;BME280;3298;42.688;23.366;2023-02-11T01:13:55;51690.47;;;-145.06;50.88
6530;BME280;3298;42.688;23.366;2023-02-11T01:16:22;51692.53;;;-145.06;50.48
6530;BME280;3298;42.688;23.366;2023-02-11T01:18:49;51686.38;;;-145.06;50.58
6530;BME280;3298;42.688;23.366;2023-02-11T01:21:16;51692.53;;;-145.06;50.78
6530;BME280;3298;42.688;23.366;2023-02-11T01:23:43;51713.00;;;-145.06;50.86
6530;BME280;3298;42.688;23.366;2023-02-11T01:26:11;51710.94;;;-145.06;50.59
6530;BME280;3298;42.688;23.366;2023-02-11T01:28:38;51710.94;;;-145.06;50.94
6530;BME280;3298;42.688;23.366;2023-02-11T01:31:05;51710.94;;;-145.06;50.96
6530;BME280;3298;42.688;23.366;2023-02-11T01:33:32;51672.06;;;-145.06;50.46
6530;BME280;3298;42.688;23.366;2023-02-11T01:36:00;51700.72;;;-145.06;51.13
6530;BME280;3298;42.688;23.366;2023-02-11T01:38:27;51684.34;;;-145.06;51.11
6530;BME280;3298;42.688;23.366;2023-02-11T01:40:56;51702.75;;;-145.06;51.23
6530;BME280;3298;42.688;23.366;2023-02-11T01:43:26;51700.72;;;-145.06;50.98
6530;BME280;3298;42.688;23.366;2023-02-11T01:46:11;51686.38;;;-145.06;51.09
6530;BME280;3298;42.688;23.366;2023-02-11T01:48:44;51700.72;;;-145.06;51.13
6530;BME280;3298;42.688;23.366;2023-02-11T01:51:14;51708.91;;;-145.06;51.17
6530;BME280;3298;42.688;23.366;2023-02-11T01:53:43;51710.94;;;-145.06;51.72
6530;BME280;3298;42.688;23.366;2023-02-11T01:56:30;51741.66;;;-145.06;51.88
6530;BME280;3298;42.688;23.366;2023-02-11T01:59:18;51688.44;;;-145.06;51.87
6530;BME280;3298;42.688;23.366;2023-02-11T02:01:49;51708.91;;;-145.06;52.16
6530;BME280;3298;42.688;23.366;2023-02-11T02:04:19;51723.22;;;-145.06;52.08
6530;BME280;3298;42.688;23.366;2023-02-11T02:06:49;51713.00;;;-145.06;52.89
6530;BME280;3298;42.688;23.366;2023-02-11T02:09:21;51698.66;;;-145.06;52.48
6530;BME280;3298;42.688;23.366;2023-02-11T02:11:49;51688.44;;;-145.06;51.91
6530;BME280;3298;42.688;23.366;2023-02-11T02:14:17;51700.72;;;-145.06;52.66
6530;BME280;3298;42.688;23.366;2023-02-11T02:16:44;51702.75;;;-145.06;52.26
6530;BME280;3298;42.688;23.366;2023-02-11T02:19:45;51688.44;;;-145.06;52.48
6530;BME280;3298;42.688;23.366;2023-02-11T02:22:52;51678.19;;;-145.06;53.13
6530;BME280;3298;42.688;23.366;2023-02-11T02:25:51;51708.91;;;-145.06;53.65
6530;BME280;3298;42.688;23.366;2023-02-11T02:28:43;51667.97;;;-145.06;53.37
6530;BME280;3298;42.688;23.366;2023-02-11T02:31:29;51713.00;;;-145.06;53.96
6530;BME280;3298;42.688;23.366;2023-02-11T02:34:01;51700.72;;;-145.06;53.94
6530;BME280;3298;42.688;23.366;2023-02-11T02:36:35;51674.09;;;-145.06;53.77
6530;BME280;3298;42.688;23.366;2023-02-11T02:39:06;51698.66;;;-145.06;54.26
6530;BME280;3298;42.688;23.366;2023-02-11T02:41:36;51710.94;;;-145.06;54.41
6530;BME280;3298;42.688;23.366;2023-02-11T02:44:05;51741.66;;;-145.06;54.07
6530;BME280;3298;42.688;23.366;2023-02-11T02:46:33;51688.44;;;-145.06;53.73
6530;BME280;3298;42.688;23.366;2023-02-11T02:49:02;51680.25;;;-145.06;53.73
6530;BME280;3298;42.688;23.366;2023-02-11T02:51:44;51688.44;;;-145.06;54.49
6530;BME280;3298;42.688;23.366;2023-02-11T02:57:21;51704.81;;;-145.06;54.00
6530;BME280;3298;42.688;23.366;2023-02-11T03:00:12;51700.72;;;-145.06;54.90
6530;BME280;3298;42.688;23.366;2023-02-11T03:02:48;51708.91;;;-145.06;54.87
6530;BME280;3298;42.688;23.366;2023-02-11T03:05:21;51710.94;;;-145.06;54.34
6530;BME280;3298;42.688;23.366;2023-02-11T03:07:53;51682.28;;;-145.06;54.41
6530;BME280;3298;42.688;23.366;2023-02-11T03:10:26;51696.63;;;-145.06;55.14
6530;BME280;3298;42.688;23.366;2023-02-11T03:12:54;51704.81;;;-145.06;54.86
6530;BME280;3298;42.688;23.366;2023-02-11T03:15:23;51684.34;;;-145.06;54.99
6530;BME280;3298;42.688;23.366;2023-02-11T03:17:54;51706.84;;;-145.06;55.04
6530;BME280;3298;42.688;23.366;2023-02-11T03:20:24;51698.66;;;-145.06;55.75
6530;BME280;3298;42.688;23.366;2023-02-11T03:22:56;51692.53;;;-145.06;55.68
6530;BME280;3298;42.688;23.366;2023-02-11T03:25:28;51688.44;;;-145.06;56.17
6530;BME280;3298;42.688;23.366;2023-02-11T03:28:00;51704.81;;;-145.06;55.98
6530;BME280;3298;42.688;23.366;2023-02-11T03:30:33;51708.91;;;-145.06;56.92
6530;BME280;3298;42.688;23.366;2023-02-11T03:33:08;51704.81;;;-145.06;55.87
6530;BME280;3298;42.688;23.366;2023-02-11T03:35:41;51696.63;;;-145.06;55.41
6530;BME280;3298;42.688;23.366;2023-02-11T03:38:13;51692.53;;;-145.06;55.45
6530;BME280;3298;42.688;23.366;2023-02-11T03:40:42;51706.84;;;-145.06;55.65
6530;BME280;3298;42.688;23.366;2023-02-11T03:43:13;51696.63;;;-145.06;55.27
6530;BME280;3298;42.688;23.366;2023-02-11T03:45:42;51725.28;;;-145.06;55.45
6530;BME280;3298;42.688;23.366;2023-02-11T03:48:14;51733.47;;;-145.06;55.20
6530;BME280;3298;42.688;23.366;2023-02-11T03:50:45;51704.81;;;-145.06;55.60
6530;BME280;3298;42.688;23.366;2023-02-11T03:53:13;51698.66;;;-145.06;55.88
6530;BME280;3298;42.688;23.366;2023-02-11T03:55:42;51723.22;;;-145.06;55.81
6530;BME280;3298;42.688;23.366;2023-02-11T03:58:09;51661.81;;;-145.06;55.96
6530;BME280;3298;42.688;23.366;2023-02-11T04:00:38;51704.81;;;-145.06;56.32
6530;BME280;3298;42.688;23.366;2023-02-11T04:03:06;51704.81;;;-145.06;55.93
6530;BME280;3298;42.688;23.366;2023-02-11T04:05:33;51696.63;;;-145.06;56.32
6530;BME280;3298;42.688;23.366;2023-02-11T04:08:01;51700.72;;;-145.06;56.46
6530;BME280;3298;42.688;23.366;2023-02-11T04:10:28;51708.91;;;-145.06;55.20
6530;BME280;3298;42.688;23.366;2023-02-11T04:12:55;51670.00;;;-145.06;55.91
6530;BME280;3298;42.688;23.366;2023-02-11T04:15:22;51704.81;;;-145.06;56.62
6530;BME280;3298;42.688;23.366;2023-02-11T04:17:49;51713.00;;;-145.06;56.78
6530;BME280;3298;42.688;23.366;2023-02-11T04:20:17;51686.38;;;-145.06;56.85
6530;BME280;3298;42.688;23.366;2023-02-11T04:22:44;51678.19;;;-145.06;56.55
6530;BME280;3298;42.688;23.366;2023-02-11T04:25:12;51667.97;;;-145.06;57.58
6530;BME280;3298;42.688;23.366;2023-02-11T04:27:38;51706.84;;;-145.06;57.22
6530;BME280;3298;42.688;23.366;2023-02-11T04:30:06;51698.66;;;-145.06;57.08
6530;BME280;3298;42.688;23.366;2023-02-11T04:32:33;51696.63;;;-145.06;58.25
6530;BME280;3298;42.688;23.366;2023-02-11T04:35:00;51721.19;;;-145.06;57.76
6530;BME280;3298;42.688;23.366;2023-02-11T04:37:27;51676.16;;;-145.06;58.52
6530;BME280;3298;42.688;23.366;2023-02-11T04:39:54;51696.63;;;-145.06;57.70
6530;BME280;3298;42.688;23.366;2023-02-11T04:42:22;51704.81;;;-145.06;57.37
6530;BME280;3298;42.688;23.366;2023-02-11T04:44:49;51670.00;;;-145.06;57.60
6530;BME280;3298;42.688;23.366;2023-02-11T04:47:16;51698.66;;;-145.06;57.78
6530;BME280;3298;42.688;23.366;2023-02-11T04:49:43;51688.44;;;-145.06;57.26
6530;BME280;3298;42.688;23.366;2023-02-11T04:52:10;51694.56;;;-145.06;57.75
6530;BME280;3298;42.688;23.366;2023-02-11T04:54:36;51713.00;;;-145.06;57.91
6530;BME280;3298;42.688;23.366;2023-02-11T04:57:03;51672.06;;;-145.06;58.01
6530;BME280;3298;42.688;23.366;2023-02-11T04:59:34;51708.91;;;-145.06;59.33
6530;BME280;3298;42.688;23.366;2023-02-11T05:02:01;51717.09;;;-145.06;58.76
6530;BME280;3298;42.688;23.366;2023-02-11T05:04:30;51659.78;;;-145.06;59.64
6530;BME280;3298;42.688;23.366;2023-02-11T05:07:07;51696.63;;;-145.06;58.28
6530;BME280;3298;42.688;23.366;2023-02-11T05:09:33;51702.75;;;-145.06;58.67
6530;BME280;3298;42.688;23.366;2023-02-11T05:12:00;51696.63;;;-145.06;58.45
6530;BME280;3298;42.688;23.366;2023-02-11T05:14:27;51698.66;;;-145.06;58.78
6530;BME280;3298;42.688;23.366;2023-02-11T05:16:55;51657.72;;;-145.06;57.76
6530;BME280;3298;42.688;23.366;2023-02-11T05:19:22;51686.38;;;-145.06;58.14
6530;BME280;3298;42.688;23.366;2023-02-11T05:21:48;51700.72;;;-145.06;57.86
6530;BME280;3298;42.688;23.366;2023-02-11T05:24:15;51719.13;;;-145.06;57.55
6530;BME280;3298;42.688;23.366;2023-02-11T05:26:42;51713.00;;;-145.06;57.97
6530;BME280;3298;42.688;23.366;2023-02-11T05:29:09;51655.69;;;-145.06;57.99
6530;BME280;3298;42.688;23.366;2023-02-11T05:31:35;51678.19;;;-145.06;57.77
6530;BME280;3298;42.688;23.366;2023-02-11T05:34:04;51696.63;;;-145.06;58.49
6530;BME280;3298;42.688;23.366;2023-02-11T05:36:30;51694.56;;;-145.06;59.41
6530;BME280;3298;42.688;23.366;2023-02-11T05:38:57;51672.06;;;-145.06;58.76
6530;BME280;3298;42.688;23.366;2023-02-11T05:41:24;51696.63;;;-145.06;58.64
6530;BME280;3298;42.688;23.366;2023-02-11T05:43:50;51680.25;;;-145.06;59.06
6530;BME280;3298;42.688;23.366;2023-02-11T05:46:17;51696.63;;;-145.06;59.20
6530;BME280;3298;42.688;23.366;2023-02-11T05:48:44;51680.25;;;-145.06;59.36
6530;BME280;3298;42.688;23.366;2023-02-11T05:51:12;51659.78;;;-145.06;59.07
6530;BME280;3298;42.688;23.366;2023-02-11T05:53:39;51684.34;;;-145.06;58.76
6530;BME280;3298;42.688;23.366;2023-02-11T05:56:06;51694.56;;;-145.06;58.59
6530;BME280;3298;42.688;23.366;2023-02-11T05:58:33;51708.91;;;-145.06;58.52
6530;BME280;3298;42.688;23.366;2023-02-11T06:01:00;51717.09;;;-145.06;58.00
6530;BME280;3298;42.688;23.366;2023-02-11T06:03:27;51698.66;;;-145.06;58.17
6530;BME280;3298;42.688;23.366;2023-02-11T06:05:54;51708.91;;;-145.06;57.70
6530;BME280;3298;42.688;23.366;2023-02-11T06:08:22;51704.81;;;-145.06;58.16
6530;BME280;3298;42.688;23.366;2023-02-11T06:10:49;51667.97;;;-145.06;58.00
6530;BME280;3298;42.688;23.366;2023-02-11T06:13:15;51659.78;;;-145.06;57.58
6530;BME280;3298;42.688;23.366;2023-02-11T06:15:44;51692.53;;;-145.06;58.04
6530;BME280;3298;42.688;23.366;2023-02-11T06:18:11;51665.91;;;-145.06;57.66
6530;BME280;3298;42.688;23.366;2023-02-11T06:20:37;51700.72;;;-145.06;58.00
6530;BME280;3298;42.688;23.366;2023-02-11T06:23:06;51655.69;;;-145.06;56.87
6530;BME280;3298;42.688;23.366;2023-02-11T06:25:34;51698.66;;;-145.06;57.10
6530;BME280;3298;42.688;23.366;2023-02-11T06:28:01;51692.53;;;-145.06;57.53
6530;BME280;3298;42.688;23.366;2023-02-11T06:30:27;51717.09;;;-145.06;56.48
6530;BME280;3298;42.688;23.366;2023-02-11T06:32:54;51700.72;;;-145.06;56.87
6530;BME280;3298;42.688;23.366;2023-02-11T06:35:21;51702.75;;;-145.06;56.02
6530;BME280;3298;42.688;23.366;2023-02-11T06:37:47;51678.19;;;-145.06;56.33
6530;BME280;3298;42.688;23.366;2023-02-11T06:40:14;51704.81;;;-145.06;56.21
6530;BME280;3298;42.688;23.366;2023-02-11T06:42:43;51704.81;;;-145.06;55.26
6530;BME280;3298;42.688;23.366;2023-02-11T06:45:09;51704.81;;;-145.06;55.79
6530;BME280;3298;42.688;23.366;2023-02-11T06:47:37;51692.53;;;-145.06;55.40
6530;BME280;3298;42.688;23.366;2023-02-11T06:50:06;51706.84;;;-145.06;55.04
6530;BME280;3298;42.688;23.366;2023-02-11T06:52:33;51667.97;;;-145.06;55.06
6530;BME280;3298;42.688;23.366;2023-02-11T06:55:00;51708.91;;;-145.06;55.27
6530;BME280;3298;42.688;23.366;2023-02-11T06:57:28;51688.44;;;-145.06;55.14
6530;BME280;3298;42.688;23.366;2023-02-11T06:59:56;51667.97;;;-145.06;55.08
6530;BME280;3298;42.688;23.366;2023-02-11T07:02:23;51676.16;;;-145.06;55.89
6530;BME280;3298;42.688;23.366;2023-02-11T07:04:50;51723.22;;;-145.06;56.16
6530;BME280;3298;42.688;23.366;2023-02-11T07:07:17;51688.44;;;-145.06;55.31
6530;BME280;3298;42.688;23.366;2023-02-11T07:09:43;51702.75;;;-145.06;54.80
6530;BME280;3298;42.688;23.366;2023-02-11T07:12:10;51698.66;;;-145.06;54.78
6530;BME280;3298;42.688;23.366;2023-02-11T07:14:37;51706.84;;;-145.06;55.55
6530;BME280;3298;42.688;23.366;2023-02-11T07:17:06;51684.34;;;-145.06;54.60
6530;BME280;3298;42.688;23.366;2023-02-11T07:19:32;51694.56;;;-145.06;55.04
6530;BME280;3298;42.688;23.366;2023-02-11T07:21:59;51678.19;;;-145.06;54.46
6530;BME280;3298;42.688;23.366;2023-02-11T07:24:26;51670.00;;;-145.06;54.43
6530;BME280;3298;42.688;23.366;2023-02-11T07:26:53;51672.06;;;-145.06;54.20
6530;BME280;3298;42.688;23.366;2023-02-11T07:29:20;51692.53;;;-145.06;54.31
6530;BME280;3298;42.688;23.366;2023-02-11T07:31:47;51682.28;;;-145.06;54.40
6530;BME280;3298;42.688;23.366;2023-02-11T07:34:15;51676.16;;;-145.06;53.57
6530;BME280;3298;42.688;23.366;2023-02-11T07:36:41;51692.53;;;-145.06;53.91
6530;BME280;3298;42.688;23.366;2023-02-11T07:39:09;51663.88;;;-145.06;53.18
6530;BME280;3298;42.688;23.366;2023-02-11T07:41:37;51702.75;;;-145.06;53.13
6530;BME280;3298;42.688;23.366;2023-02-11T07:44:04;51672.06;;;-145.06;53.20
6530;BME280;3298;42.688;23.366;2023-02-11T07:46:31;51665.91;;;-145.06;53.30
6530;BME280;3298;42.688;23.366;2023-02-11T07:48:59;51696.63;;;-145.06;53.16
6530;BME280;3298;42.688;23.366;2023-02-11T07:51:29;51706.84;;;-145.06;53.06
6530;BME280;3298;42.688;23.366;2023-02-11T07:53:58;51680.25;;;-145.06;53.30
6530;BME280;3298;42.688;23.366;2023-02-11T07:56:25;51663.88;;;-145.06;53.63
6530;BME280;3298;42.688;23.366;2023-02-11T07:58:53;51704.81;;;-145.06;53.37
6530;BME280;3298;42.688;23.366;2023-02-11T08:01:22;51704.81;;;-145.06;52.96
6530;BME280;3298;42.688;23.366;2023-02-11T08:03:51;51696.63;;;-145.06;53.02
6530;BME280;3298;42.688;23.366;2023-02-11T08:06:20;51719.13;;;-145.06;52.66
6530;BME280;3298;42.688;23.366;2023-02-11T08:08:49;51676.16;;;-145.06;52.66
6530;BME280;3298;42.688;23.366;2023-02-11T08:11:17;51713.00;;;-145.06;52.64
6530;BME280;3298;42.688;23.366;2023-02-11T08:13:44;51665.91;;;-145.06;52.50
6530;BME280;3298;42.688;23.366;2023-02-11T08:16:17;51700.72;;;-145.06;52.21
6530;BME280;3298;42.688;23.366;2023-02-11T08:18:45;51694.56;;;-145.06;52.19
6530;BME280;3298;42.688;23.366;2023-02-11T08:21:12;51704.81;;;-145.06;51.96
6530;BME280;3298;42.688;23.366;2023-02-11T08:23:40;51702.75;;;-145.06;51.90
6530;BME280;3298;42.688;23.366;2023-02-11T08:26:10;51667.97;;;-145.06;51.57
6530;BME280;3298;42.688;23.366;2023-02-11T08:28:39;51708.91;;;-145.06;51.98
6530;BME280;3298;42.688;23.366;2023-02-11T08:31:07;51655.69;;;-145.06;51.72
6530;BME280;3298;42.688;23.366;2023-02-11T08:33:33;51676.16;;;-145.06;51.29
6530;BME280;3298;42.688;23.366;2023-02-11T08:36:01;51678.19;;;-145.06;51.51
6530;BME280;3298;42.688;23.366;2023-02-11T08:38:32;51713.00;;;-145.06;51.11
6530;BME280;3298;42.688;23.366;2023-02-11T08:40:59;51710.94;;;-145.06;51.20
6530;BME280;3298;42.688;23.366;2023-02-11T08:43:28;51678.19;;;-145.06;51.41
6530;BME280;3298;42.688;23.366;2023-02-11T08:45:55;51700.72;;;-145.06;51.54
6530;BME280;3298;42.688;23.366;2023-02-11T08:48:21;51696.63;;;-145.06;50.68
6530;BME280;3298;42.688;23.366;2023-02-11T08:50:48;51676.16;;;-145.06;50.84
6530;BME280;3298;42.688;23.366;2023-02-11T08:53:15;51684.34;;;-145.06;50.50
6530;BME280;3298;42.688;23.366;2023-02-11T08:55:47;51700.72;;;-145.06;50.55
6530;BME280;3298;42.688;23.366;2023-02-11T08:58:14;51694.56;;;-145.06;50.72
6530;BME280;3298;42.688;23.366;2023-02-11T09:00:42;51704.81;;;-145.06;50.02
6530;BME280;3298;42.688;23.366;2023-02-11T09:03:09;51663.88;;;-145.06;50.10
6530;BME280;3298;42.688;23.366;2023-02-11T09:05:39;51682.28;;;-145.06;49.89
6530;BME280;3298;42.688;23.366;2023-02-11T09:08:06;51706.84;;;-145.06;50.05
6530;BME280;3298;42.688;23.366;2023-02-11T09:10:33;51694.56;;;-145.06;49.79
6530;BME280;3298;42.688;23.366;2023-02-11T09:13:00;51657.72;;;-145.06;49.75
6530;BME280;3298;42.688;23.366;2023-02-11T09:15:27;51696.63;;;-145.06;49.43
6530;BME280;3298;42.688;23.366;2023-02-11T09:17:55;51696.63;;;-145.06;49.79
6530;BME280;3298;42.688;23.366;2023-02-11T09:20:22;51715.03;;;-145.06;49.25
6530;BME280;3298;42.688;23.366;2023-02-11T09:22:50;51702.75;;;-145.06;48.74
6530;BME280;3298;42.688;23.366;2023-02-11T09:25:17;51702.75;;;-145.06;48.68
6530;BME280;3298;42.688;23.366;2023-02-11T09:27:44;51676.16;;;-145.06;48.98
6530;BME280;3298;42.688;23.366;2023-02-11T09:30:11;51729.38;;;-145.06;48.58
6530;BME280;3298;42.688;23.366;2023-02-11T09:32:38;51721.19;;;-145.06;49.00
6530;BME280;3298;42.688;23.366;2023-02-11T09:35:07;51667.97;;;-145.06;48.87
6530;BME280;3298;42.688;23.366;2023-02-11T09:37:34;51721.19;;;-145.06;48.69
6530;BME280;3298;42.688;23.366;2023-02-11T09:40:01;51704.81;;;-145.06;49.00
6530;BME280;3298;42.688;23.366;2023-02-11T09:42:44;51713.00;;;-145.06;47.75
6530;BME280;3298;42.688;23.366;2023-02-11T09:45:16;51696.63;;;-145.06;47.74
6530;BME280;3298;42.688;23.366;2023-02-11T09:47:48;51692.53;;;-145.06;47.07
6530;BME280;3298;42.688;23.366;2023-02-11T09:50:21;51727.31;;;-145.06;46.07
6530;BME280;3298;42.688;23.366;2023-02-11T09:52:54;51682.28;;;-145.06;45.75
6530;BME280;3298;42.688;23.366;2023-02-11T09:55:25;51700.72;;;-145.06;45.35
6530;BME280;3298;42.688;23.366;2023-02-11T09:57:53;51700.72;;;-145.06;45.72
6530;BME280;3298;42.688;23.366;2023-02-11T10:00:23;51696.63;;;-145.06;45.73
6530;BME280;3298;42.688;23.366;2023-02-11T10:03:00;51702.75;;;-145.06;45.21
6530;BME280;3298;42.688;23.366;2023-02-11T10:05:42;51713.00;;;-145.06;44.37
6530;BME280;3298;42.688;23.366;2023-02-11T10:08:16;51686.38;;;-145.06;43.46
6530;BME280;3298;42.688;23.366;2023-02-11T10:10:50;51717.09;;;-145.06;43.32
6530;BME280;3298;42.688;23.366;2023-02-11T10:13:38;51676.16;;;-145.06;43.05
6530;BME280;3298;42.688;23.366;2023-02-11T10:16:20;51688.44;;;-145.06;43.15
6530;BME280;3298;42.688;23.366;2023-02-11T10:19:03;51696.63;;;-145.06;43.58
6530;BME280;3298;42.688;23.366;2023-02-11T10:21:45;51700.72;;;-145.06;43.25
6530;BME280;3298;42.688;23.366;2023-02-11T10:24:16;51719.13;;;-145.06;43.07
6530;BME280;3298;42.688;23.366;2023-02-11T10:26:43;51663.88;;;-145.06;42.20
6530;BME280;3298;42.688;23.366;2023-02-11T10:29:22;51704.81;;;-145.06;42.58
6530;BME280;3298;42.688;23.366;2023-02-11T10:31:52;51706.84;;;-145.06;42.02
6530;BME280;3298;42.688;23.366;2023-02-11T10:34:19;51700.72;;;-145.06;42.05
6530;BME280;3298;42.688;23.366;2023-02-11T10:36:47;51725.28;;;-145.06;41.59
6530;BME280;3298;42.688;23.366;2023-02-11T10:39:16;51721.19;;;-145.06;41.31
6530;BME280;3298;42.688;23.366;2023-02-11T10:41:46;51702.75;;;-145.06;40.65
6530;BME280;3298;42.688;23.366;2023-02-11T10:44:23;51702.75;;;-145.06;40.79
6530;BME280;3298;42.688;23.366;2023-02-11T10:46:51;51723.22;;;-145.06;40.99
6530;BME280;3298;42.688;23.366;2023-02-11T10:49:37;51672.06;;;-145.06;40.45
6530;BME280;3298;42.688;23.366;2023-02-11T10:52:14;51715.03;;;-145.06;40.25
6530;BME280;3298;42.688;23.366;2023-02-11T10:54:42;51692.53;;;-145.06;40.05
6530;BME280;3298;42.688;23.366;2023-02-11T10:57:20;51700.72;;;-145.06;40.19
6530;BME280;3298;42.688;23.366;2023-02-11T10:59:48;51676.16;;;-145.06;39.86
6530;BME280;3298;42.688;23.366;2023-02-11T11:02:22;51713.00;;;-145.06;39.52
6530;BME280;3298;42.688;23.366;2023-02-11T11:04:55;51704.81;;;-145.06;39.77
6530;BME280;3298;42.688;23.366;2023-02-11T11:07:25;51698.66;;;-145.06;39.50
6530;BME280;3298;42.688;23.366;2023-02-11T11:09:54;51700.72;;;-145.06;38.86
6530;BME280;3298;42.688;23.366;2023-02-11T11:12:26;51725.28;;;-145.06;38.88
6530;BME280;3298;42.688;23.366;2023-02-11T11:14:54;51686.38;;;-145.06;39.29
6530;BME280;3298;42.688;23.366;2023-02-11T11:17:21;51704.81;;;-145.06;39.14
6530;BME280;3298;42.688;23.366;2023-02-11T11:19:47;51717.09;;;-145.06;39.52
6530;BME280;3298;42.688;23.366;2023-02-11T11:22:19;51708.91;;;-145.06;39.45
6530;BME280;3298;42.688;23.366;2023-02-11T11:24:48;51708.91;;;-145.06;38.92
6530;BME280;3298;42.688;23.366;2023-02-11T11:27:20;51688.44;;;-145.06;38.59
6530;BME280;3298;42.688;23.366;2023-02-11T11:29:50;51721.19;;;-145.06;37.90
6530;BME280;3298;42.688;23.366;2023-02-11T11:32:20;51688.44;;;-145.06;37.41
6530;BME280;3298;42.688;23.366;2023-02-11T11:34:49;51704.81;;;-145.06;36.85
6530;BME280;3298;42.688;23.366;2023-02-11T11:37:23;51745.75;;;-145.06;36.52
6530;BME280;3298;42.688;23.366;2023-02-11T11:39:56;51690.47;;;-145.06;35.52
6530;BME280;3298;42.688;23.366;2023-02-11T11:42:27;51690.47;;;-145.06;35.03
6530;BME280;3298;42.688;23.366;2023-02-11T11:44:56;51694.56;;;-145.06;34.95
6530;BME280;3298;42.688;23.366;2023-02-11T11:47:32;51672.06;;;-145.06;34.14
6530;BME280;3298;42.688;23.366;2023-02-11T11:50:22;51692.53;;;-145.06;34.11
6530;BME280;3298;42.688;23.366;2023-02-11T11:52:55;51704.81;;;-145.06;33.46
6530;BME280;3298;42.688;23.366;2023-02-11T11:55:30;51713.00;;;-145.06;34.58
6530;BME280;3298;42.688;23.366;2023-02-11T11:57:58;51708.91;;;-145.06;35.06
6530;BME280;3298;42.688;23.366;2023-02-11T12:00:33;51704.81;;;-145.06;34.35
6530;BME280;3298;42.688;23.366;2023-02-11T12:06:15;51733.47;;;-145.06;33.76
6530;BME280;3298;42.688;23.366;2023-02-11T12:08:52;51688.44;;;-145.06;33.83
6530;BME280;3298;42.688;23.366;2023-02-11T12:11:24;51706.84;;;-145.06;34.25
6530;BME280;3298;42.688;23.366;2023-02-11T12:14:05;51680.25;;;-145.06;34.17
6530;BME280;3298;42.688;23.366;2023-02-11T12:16:44;51731.41;;;-145.06;34.13
6530;BME280;3298;42.688;23.366;2023-02-11T12:19:46;51727.31;;;-145.06;34.02
6530;BME280;3298;42.688;23.366;2023-02-11T12:22:25;51708.91;;;-145.06;33.90
6530;BME280;3298;42.688;23.366;2023-02-11T12:25:07;51680.25;;;-145.06;33.18
6530;BME280;3298;42.688;23.366;2023-02-11T12:27:49;51704.81;;;-145.06;32.99
6530;BME280;3298;42.688;23.366;2023-02-11T12:30:31;51704.81;;;-145.06;32.54
6530;BME280;3298;42.688;23.366;2023-02-11T12:33:08;51710.94;;;-145.06;32.41
6530;BME280;3298;42.688;23.366;2023-02-11T12:35:46;51725.28;;;-145.06;32.35
6530;BME280;3298;42.688;23.366;2023-02-11T12:38:26;51715.03;;;-145.06;32.49
6530;BME280;3298;42.688;23.366;2023-02-11T12:41:08;51700.72;;;-145.06;32.96
6530;BME280;3298;42.688;23.366;2023-02-11T12:43:42;51717.09;;;-145.06;33.23
6530;BME280;3298;42.688;23.366;2023-02-11T12:46:33;51713.00;;;-145.06;33.54
6530;BME280;3298;42.688;23.366;2023-02-11T12:49:11;51706.84;;;-145.06;34.08
6530;BME280;3298;42.688;23.366;2023-02-11T12:51:51;51737.56;;;-145.06;34.34
6530;BME280;3298;42.688;23.366;2023-02-11T12:54:26;51692.53;;;-145.06;33.38
6530;BME280;3298;42.688;23.366;2023-02-11T12:56:58;51713.00;;;-145.06;33.84
6530;BME280;3298;42.688;23.366;2023-02-11T12:59:45;51731.41;;;-145.06;33.35
6530;BME280;3298;42.688;23.366;2023-02-11T13:02:22;51704.81;;;-145.06;34.11
6530;BME280;3298;42.688;23.366;2023-02-11T13:04:53;51684.34;;;-145.06;33.96
6530;BME280;3298;42.688;23.366;2023-02-11T13:07:26;51713.00;;;-145.06;34.61
6530;BME280;3298;42.688;23.366;2023-02-11T13:09:59;51713.00;;;-145.06;34.87
6530;BME280;3298;42.688;23.366;2023-02-11T13:12:28;51725.28;;;-145.06;35.09